Time;durP1;ratioP1;P1;durP2;ratioP2;P2;SDS_P1;SDS_P2;PMS_P1;PMS_P2;Temp;Humidity;BMP_temperature;BMP_pressure;BME280_temperature;BME280_humidity;BME280_pressure;Samples;Min_cycle;Max_cycle;Signal;HPM_P1;HPM_P2
2021/11/29 00:00:17;;;;;;;5.47;2.42;;;;;;;;;;5032156;28;20481;-87
2021/11/29 00:02:47;;;;;;;6.35;2.67;;;;;;;;;;5027917;28;20056;-87
2021/11/29 00:05:13;;;;;;;4.32;2.80;;;;;;;;;;5032092;28;20021;-84
2021/11/29 00:07:38;;;;;;;4.25;2.22;;;;;;;;;;5029414;28;20029;-83
2021/11/29 00:10:05;;;;;;;4.45;2.00;;;;;;;;;;5032784;28;20043;-82
2021/11/29 00:12:31;;;;;;;3.88;2.00;;;;;;;;;;5050646;28;20115;-83
2021/11/29 00:14:56;;;;;;;4.13;1.52;;;;;;;;;;5032084;28;20063;-80
2021/11/29 00:17:22;;;;;;;7.85;1.65;;;;;;;;;;5030391;28;20075;-86
2021/11/29 00:19:47;;;;;;;2.33;1.20;;;;;;;;;;5029623;28;20516;-82
2021/11/29 00:22:13;;;;;;;3.38;1.33;;;;;;;;;;5021918;28;20025;-82
2021/11/29 00:24:38;;;;;;;3.88;1.23;;;;;;;;;;5030096;28;20116;-82
2021/11/29 00:27:04;;;;;;;3.17;1.63;;;;;;;;;;5038645;28;20025;-83
2021/11/29 00:29:29;;;;;;;5.10;1.67;;;;;;;;;;5033024;28;20377;-85
2021/11/29 00:31:54;;;;;;;5.57;1.63;;;;;;;;;;5031678;28;20057;-81
2021/11/29 00:34:21;;;;;;;3.45;1.50;;;;;;;;;;5028528;28;20533;-81
2021/11/29 00:36:47;;;;;;;3.25;1.30;;;;;;;;;;5033174;28;20108;-82
2021/11/29 00:39:12;;;;;;;3.40;1.38;;;;;;;;;;5037052;28;20127;-80
2021/11/29 00:41:38;;;;;;;3.35;1.50;;;;;;;;;;5027432;28;20071;-83
2021/11/29 00:44:03;;;;;;;3.15;1.50;;;;;;;;;;5033540;28;20028;-83
2021/11/29 00:46:29;;;;;;;2.42;1.25;;;;;;;;;;5032342;28;20040;-82
2021/11/29 00:48:54;;;;;;;2.33;1.10;;;;;;;;;;5026486;28;20056;-81
2021/11/29 00:51:19;;;;;;;3.70;1.45;;;;;;;;;;5051853;28;20447;-84
2021/11/29 00:53:46;;;;;;;2.97;1.20;;;;;;;;;;5035496;28;20396;-80
2021/11/29 00:56:12;;;;;;;3.10;1.30;;;;;;;;;;5037962;28;20036;-85
2021/11/29 00:58:38;;;;;;;4.03;1.20;;;;;;;;;;5037655;28;20027;-80
2021/11/29 01:01:03;;;;;;;2.72;1.10;;;;;;;;;;5053845;28;20021;-82
2021/11/29 01:03:29;;;;;;;2.58;1.30;;;;;;;;;;5032013;28;20053;-80
2021/11/29 01:05:55;;;;;;;2.42;1.20;;;;;;;;;;5037803;28;20087;-81
2021/11/29 01:08:20;;;;;;;3.03;1.30;;;;;;;;;;5033223;28;20481;-85
2021/11/29 01:10:46;;;;;;;3.92;1.30;;;;;;;;;;5033878;28;20040;-83
2021/11/29 01:13:11;;;;;;;3.10;1.60;;;;;;;;;;5034080;28;20025;-82
2021/11/29 01:15:38;;;;;;;3.08;1.40;;;;;;;;;;5037190;28;20027;-83
2021/11/29 01:18:10;;;;;;;5.85;1.60;;;;;;;;;;5051934;28;20121;-79
2021/11/29 01:20:36;;;;;;;2.17;1.20;;;;;;;;;;5033027;28;20028;-83
2021/11/29 01:23:02;;;;;;;3.03;1.30;;;;;;;;;;5054424;28;20392;-82
2021/11/29 01:25:27;;;;;;;2.33;1.23;;;;;;;;;;5026989;28;20021;-85
2021/11/29 01:27:53;;;;;;;2.60;1.30;;;;;;;;;;5035672;28;20021;-83
2021/11/29 01:30:18;;;;;;;4.03;1.75;;;;;;;;;;5054347;28;20476;-81
2021/11/29 01:32:43;;;;;;;4.35;1.40;;;;;;;;;;5054239;28;20032;-85
2021/11/29 01:35:09;;;;;;;5.10;1.27;;;;;;;;;;5030640;28;20747;-81
2021/11/29 01:37:35;;;;;;;3.55;1.25;;;;;;;;;;5036609;28;20021;-83
2021/11/29 01:40:03;;;;;;;2.80;1.30;;;;;;;;;;5049347;28;20028;-81
2021/11/29 01:42:28;;;;;;;2.33;1.17;;;;;;;;;;5037259;28;20029;-85
2021/11/29 01:44:54;;;;;;;3.67;1.38;;;;;;;;;;5027818;28;20370;-80
2021/11/29 01:47:21;;;;;;;3.45;1.30;;;;;;;;;;5035830;28;20107;-81
2021/11/29 01:49:47;;;;;;;3.22;1.35;;;;;;;;;;5047500;28;20424;-81
2021/11/29 01:52:12;;;;;;;3.17;1.38;;;;;;;;;;5033667;28;20029;-80
2021/11/29 01:54:38;;;;;;;3.95;1.25;;;;;;;;;;5035078;28;20032;-80
2021/11/29 01:57:03;;;;;;;3.10;1.60;;;;;;;;;;5032459;28;20028;-80
2021/11/29 01:59:29;;;;;;;1.40;0.80;;;;;;;;;;5032139;28;20420;-80
2021/11/29 02:01:54;;;;;;;1.90;0.80;;;;;;;;;;5028507;28;20491;-81
2021/11/29 02:04:20;;;;;;;2.80;1.02;;;;;;;;;;5030453;28;20062;-83
2021/11/29 02:06:46;;;;;;;2.50;0.90;;;;;;;;;;5028374;28;20108;-81
2021/11/29 02:09:12;;;;;;;1.58;0.90;;;;;;;;;;5024448;28;20074;-82
2021/11/29 02:11:39;;;;;;;1.65;0.70;;;;;;;;;;5016297;28;20025;-85
2021/11/29 02:14:05;;;;;;;1.88;0.70;;;;;;;;;;5034413;28;20028;-81
2021/11/29 02:16:30;;;;;;;1.58;0.70;;;;;;;;;;5016404;28;20080;-85
2021/11/29 02:18:56;;;;;;;2.00;0.65;;;;;;;;;;5010732;28;20065;-82
2021/11/29 02:21:31;;;;;;;3.42;0.90;;;;;;;;;;5015258;28;20036;-80
2021/11/29 02:24:05;;;;;;;1.73;0.70;;;;;;;;;;5016215;28;20029;-81
2021/11/29 02:26:33;;;;;;;1.08;0.70;;;;;;;;;;5015922;28;20029;-83
2021/11/29 02:29:04;;;;;;;1.15;0.70;;;;;;;;;;5012355;28;20033;-80
2021/11/29 02:31:39;;;;;;;2.05;0.85;;;;;;;;;;5012519;28;20017;-80
2021/11/29 02:34:15;;;;;;;2.13;0.70;;;;;;;;;;5013406;28;20566;-81
2021/11/29 02:36:41;;;;;;;1.10;0.40;;;;;;;;;;5008995;28;20025;-80
2021/11/29 02:39:09;;;;;;;2.08;0.50;;;;;;;;;;5022433;28;20429;-80
2021/11/29 02:41:34;;;;;;;0.43;0.30;;;;;;;;;;5015268;28;20040;-84
2021/11/29 02:44:00;;;;;;;2.35;0.45;;;;;;;;;;5024134;28;20034;-80
2021/11/29 02:46:26;;;;;;;3.58;0.47;;;;;;;;;;5017256;28;20022;-81
2021/11/29 02:48:52;;;;;;;1.33;0.55;;;;;;;;;;5015772;28;20013;-79
2021/11/29 02:51:20;;;;;;;2.33;0.90;;;;;;;;;;5013772;28;20026;-79
2021/11/29 02:53:46;;;;;;;0.90;0.70;;;;;;;;;;5015503;28;20108;-82
2021/11/29 02:56:11;;;;;;;1.42;0.60;;;;;;;;;;5034607;28;20476;-79
2021/11/29 02:58:40;;;;;;;1.85;0.80;;;;;;;;;;5004154;28;20053;-81
2021/11/29 03:01:06;;;;;;;1.38;0.50;;;;;;;;;;5011629;28;20101;-84
2021/11/29 03:03:31;;;;;;;4.50;0.63;;;;;;;;;;5015273;28;20421;-84
2021/11/29 03:05:56;;;;;;;1.48;0.40;;;;;;;;;;5033174;28;20152;-81
2021/11/29 03:08:22;;;;;;;1.42;0.50;;;;;;;;;;5020556;28;20079;-84
2021/11/29 03:10:47;;;;;;;3.17;0.60;;;;;;;;;;5035255;28;20028;-84
2021/11/29 03:13:12;;;;;;;2.20;0.60;;;;;;;;;;5019703;28;20049;-84
2021/11/29 03:15:38;;;;;;;0.98;0.50;;;;;;;;;;5035287;28;20047;-80
2021/11/29 03:18:03;;;;;;;1.10;0.50;;;;;;;;;;5035385;28;20063;-84
2021/11/29 03:20:28;;;;;;;3.30;0.70;;;;;;;;;;5031165;28;20116;-83
2021/11/29 03:22:54;;;;;;;4.40;0.82;;;;;;;;;;5046690;28;20035;-84
2021/11/29 03:25:19;;;;;;;1.58;0.70;;;;;;;;;;5061057;28;20032;-80
2021/11/29 03:27:44;;;;;;;2.35;0.60;;;;;;;;;;5030911;28;20021;-79
2021/11/29 03:30:11;;;;;;;2.00;0.60;;;;;;;;;;5034979;28;20695;-85
2021/11/29 03:32:38;;;;;;;2.03;0.70;;;;;;;;;;5026353;28;20028;-83
2021/11/29 03:35:06;;;;;;;1.90;0.88;;;;;;;;;;5022044;28;20473;-82
2021/11/29 03:37:31;;;;;;;1.48;0.82;;;;;;;;;;5027093;28;20163;-85
2021/11/29 03:39:56;;;;;;;1.55;0.60;;;;;;;;;;5032953;28;20115;-83
2021/11/29 03:42:22;;;;;;;3.38;0.90;;;;;;;;;;5050576;28;20479;-81
2021/11/29 03:44:47;;;;;;;1.38;0.75;;;;;;;;;;5026899;28;20026;-79
2021/11/29 03:47:13;;;;;;;2.25;0.77;;;;;;;;;;5034387;28;20020;-83
2021/11/29 03:49:38;;;;;;;2.97;0.90;;;;;;;;;;5029088;28;20021;-79
2021/11/29 03:52:04;;;;;;;2.38;0.95;;;;;;;;;;5029751;28;20033;-79
2021/11/29 03:54:30;;;;;;;3.75;0.80;;;;;;;;;;5029524;28;20032;-81
2021/11/29 03:56:55;;;;;;;2.97;0.60;;;;;;;;;;5050051;28;20032;-83
2021/11/29 03:59:20;;;;;;;1.42;0.70;;;;;;;;;;5026439;28;20035;-83
2021/11/29 04:01:46;;;;;;;5.80;0.80;;;;;;;;;;5033618;28;20061;-83
2021/11/29 04:04:12;;;;;;;2.83;0.82;;;;;;;;;;5048496;28;20033;-79
2021/11/29 04:06:38;;;;;;;2.15;0.50;;;;;;;;;;5038185;28;20021;-84
2021/11/29 04:09:05;;;;;;;3.42;0.70;;;;;;;;;;5041175;28;20048;-83
2021/11/29 04:11:31;;;;;;;2.03;0.73;;;;;;;;;;5035299;28;20133;-83
2021/11/29 04:13:56;;;;;;;1.95;0.50;;;;;;;;;;5037483;28;20468;-81
2021/11/29 04:16:22;;;;;;;2.38;0.57;;;;;;;;;;5037370;28;20112;-83
2021/11/29 04:18:47;;;;;;;1.33;0.50;;;;;;;;;;5030873;28;20098;-83
2021/11/29 04:21:14;;;;;;;0.85;0.47;;;;;;;;;;5032786;28;20029;-83
2021/11/29 04:23:44;;;;;;;1.05;0.40;;;;;;;;;;5025963;28;20028;-85
2021/11/29 04:26:12;;;;;;;2.38;0.50;;;;;;;;;;5036805;28;20033;-79
2021/11/29 04:28:37;;;;;;;1.10;0.55;;;;;;;;;;5031201;28;20574;-84
2021/11/29 04:31:03;;;;;;;1.60;0.90;;;;;;;;;;5034257;28;20033;-81
2021/11/29 04:33:28;;;;;;;0.80;0.50;;;;;;;;;;5035583;28;20032;-82
2021/11/29 04:35:53;;;;;;;2.42;0.60;;;;;;;;;;5033592;28;20104;-82
2021/11/29 04:38:19;;;;;;;2.15;0.80;;;;;;;;;;5036356;28;20029;-82
2021/11/29 04:40:45;;;;;;;2.00;0.70;;;;;;;;;;5037336;28;20079;-83
2021/11/29 04:43:10;;;;;;;2.42;0.63;;;;;;;;;;5038318;28;20027;-85
2021/11/29 04:45:36;;;;;;;1.30;0.80;;;;;;;;;;5038913;28;20431;-80
2021/11/29 04:48:02;;;;;;;1.42;0.80;;;;;;;;;;5036011;28;20024;-81
2021/11/29 04:50:27;;;;;;;2.10;0.80;;;;;;;;;;5047107;28;20025;-84
2021/11/29 04:52:53;;;;;;;2.70;0.98;;;;;;;;;;5065682;28;20025;-82
2021/11/29 04:55:18;;;;;;;2.85;1.02;;;;;;;;;;5031151;28;20044;-81
2021/11/29 04:57:44;;;;;;;1.80;1.10;;;;;;;;;;5037581;28;20074;-83
2021/11/29 05:00:11;;;;;;;3.50;0.93;;;;;;;;;;5037488;28;20396;-85
2021/11/29 05:02:38;;;;;;;3.80;1.00;;;;;;;;;;5028444;28;20025;-80
2021/11/29 05:05:05;;;;;;;2.53;1.05;;;;;;;;;;5027018;28;20056;-84
2021/11/29 05:07:30;;;;;;;2.13;1.10;;;;;;;;;;5036525;28;20078;-85
2021/11/29 05:09:56;;;;;;;3.55;1.27;;;;;;;;;;5034155;28;20064;-84
2021/11/29 05:12:21;;;;;;;2.72;1.27;;;;;;;;;;5030952;28;20025;-79
2021/11/29 05:14:48;;;;;;;3.13;1.23;;;;;;;;;;5037707;28;20382;-82
2021/11/29 05:17:18;;;;;;;3.53;1.45;;;;;;;;;;5037364;28;20688;-80
2021/11/29 05:19:44;;;;;;;2.50;1.38;;;;;;;;;;5034741;28;20439;-83
2021/11/29 05:22:09;;;;;;;3.33;1.45;;;;;;;;;;5029920;28;20028;-83
2021/11/29 05:24:35;;;;;;;5.07;1.60;;;;;;;;;;5050448;28;20037;-81
2021/11/29 05:27:01;;;;;;;4.32;1.42;;;;;;;;;;5031840;28;20030;-83
2021/11/29 05:29:26;;;;;;;4.40;1.40;;;;;;;;;;5029546;28;20056;-82
2021/11/29 05:31:52;;;;;;;2.30;1.50;;;;;;;;;;5032688;28;20028;-83
2021/11/29 05:34:18;;;;;;;2.20;1.50;;;;;;;;;;5027952;28;20029;-83
2021/11/29 05:36:44;;;;;;;3.40;1.40;;;;;;;;;;5029617;28;20021;-83
2021/11/29 05:39:09;;;;;;;5.28;1.75;;;;;;;;;;5047929;28;20062;-84
2021/11/29 05:41:35;;;;;;;5.65;1.80;;;;;;;;;;5029943;28;20075;-83
2021/11/29 05:44:00;;;;;;;2.78;1.63;;;;;;;;;;5054772;28;20021;-82
2021/11/29 05:46:25;;;;;;;2.45;1.50;;;;;;;;;;5036933;28;20095;-83
2021/11/29 05:48:52;;;;;;;2.92;1.80;;;;;;;;;;5054138;28;20071;-83
2021/11/29 05:51:18;;;;;;;2.78;1.70;;;;;;;;;;5034700;28;20036;-79
2021/11/29 05:53:44;;;;;;;3.35;1.60;;;;;;;;;;5054108;28;20468;-79
2021/11/29 05:56:09;;;;;;;3.08;1.80;;;;;;;;;;5031588;28;20024;-84
2021/11/29 05:58:35;;;;;;;5.03;1.85;;;;;;;;;;5031757;28;20049;-82
2021/11/29 06:01:03;;;;;;;2.58;1.75;;;;;;;;;;5029759;28;20049;-85
2021/11/29 06:03:28;;;;;;;2.80;1.77;;;;;;;;;;5024111;28;20033;-80
2021/11/29 06:05:53;;;;;;;4.88;2.40;;;;;;;;;;5031202;28;20025;-82
2021/11/29 06:08:19;;;;;;;3.88;2.10;;;;;;;;;;5030912;28;20065;-83
2021/11/29 06:10:44;;;;;;;4.03;2.10;;;;;;;;;;5046280;28;20396;-84
2021/11/29 06:13:10;;;;;;;4.55;2.35;;;;;;;;;;5053318;28;20021;-82
2021/11/29 06:15:35;;;;;;;5.57;2.20;;;;;;;;;;5033390;28;20029;-80
2021/11/29 06:18:00;;;;;;;4.57;2.20;;;;;;;;;;5032138;28;20032;-85
2021/11/29 06:20:26;;;;;;;4.43;2.45;;;;;;;;;;5020454;28;20076;-84
2021/11/29 06:22:54;;;;;;;4.57;2.40;;;;;;;;;;5033995;28;20124;-81
2021/11/29 06:25:23;;;;;;;7.07;2.65;;;;;;;;;;5024484;28;20033;-79
2021/11/29 06:27:50;;;;;;;4.72;2.33;;;;;;;;;;5034329;28;20036;-81
2021/11/29 06:30:16;;;;;;;4.60;2.78;;;;;;;;;;5051278;28;20013;-81
2021/11/29 06:32:42;;;;;;;5.45;3.13;;;;;;;;;;5030232;28;20036;-85
2021/11/29 06:35:09;;;;;;;4.93;2.65;;;;;;;;;;5030262;28;20380;-82
2021/11/29 06:37:35;;;;;;;4.72;2.80;;;;;;;;;;5053184;28;20028;-79
2021/11/29 06:40:02;;;;;;;6.55;3.20;;;;;;;;;;5028650;28;20063;-82
2021/11/29 06:42:30;;;;;;;6.18;2.95;;;;;;;;;;5052898;28;20051;-83
2021/11/29 06:44:55;;;;;;;4.45;3.00;;;;;;;;;;5041003;28;20033;-82
2021/11/29 06:47:21;;;;;;;8.13;3.38;;;;;;;;;;5053697;28;20025;-79
2021/11/29 06:49:47;;;;;;;4.65;3.10;;;;;;;;;;5035820;28;20021;-83
2021/11/29 06:52:13;;;;;;;4.85;2.95;;;;;;;;;;5035684;28;20032;-80
2021/11/29 06:54:40;;;;;;;3.72;2.40;;;;;;;;;;5028700;28;20022;-84
2021/11/29 06:57:06;;;;;;;5.45;2.95;;;;;;;;;;5023688;28;20059;-85
2021/11/29 06:59:32;;;;;;;9.00;3.05;;;;;;;;;;5047227;28;20063;-80
2021/11/29 07:02:01;;;;;;;4.13;2.78;;;;;;;;;;5048544;28;20999;-83
2021/11/29 07:04:26;;;;;;;4.35;2.40;;;;;;;;;;5031033;28;20032;-81
2021/11/29 07:06:52;;;;;;;4.65;2.20;;;;;;;;;;5060331;28;20024;-81
2021/11/29 07:09:17;;;;;;;7.25;2.10;;;;;;;;;;5034260;28;20059;-83
2021/11/29 07:11:43;;;;;;;6.43;2.13;;;;;;;;;;5027126;28;20511;-80
2021/11/29 07:14:08;;;;;;;5.88;1.90;;;;;;;;;;5032515;28;20041;-83
2021/11/29 07:16:35;;;;;;;6.20;1.65;;;;;;;;;;5030004;28;20117;-85
2021/11/29 07:19:00;;;;;;;5.13;1.60;;;;;;;;;;5033673;28;20107;-80
2021/11/29 07:21:26;;;;;;;4.05;1.58;;;;;;;;;;5033374;28;20108;-83
2021/11/29 07:23:51;;;;;;;6.03;1.60;;;;;;;;;;5031142;28;20053;-83
2021/11/29 07:26:16;;;;;;;3.70;1.25;;;;;;;;;;5054553;28;20087;-82
2021/11/29 07:28:42;;;;;;;5.28;1.27;;;;;;;;;;5031293;28;20036;-81
2021/11/29 07:31:07;;;;;;;5.78;1.50;;;;;;;;;;5023512;28;20051;-83
2021/11/29 07:33:33;;;;;;;3.88;1.33;;;;;;;;;;5035309;28;20067;-80
2021/11/29 07:35:59;;;;;;;4.60;1.42;;;;;;;;;;5042211;28;20030;-79
2021/11/29 07:38:24;;;;;;;2.90;1.10;;;;;;;;;;5019200;28;20025;-83
2021/11/29 07:40:50;;;;;;;2.83;1.15;;;;;;;;;;5052418;28;20082;-80
2021/11/29 07:43:17;;;;;;;5.93;1.23;;;;;;;;;;5030974;28;20426;-83
2021/11/29 07:45:43;;;;;;;7.93;1.50;;;;;;;;;;5034649;28;20115;-79
2021/11/29 07:48:08;;;;;;;4.88;1.00;;;;;;;;;;5023360;28;20108;-82
2021/11/29 07:50:35;;;;;;;4.75;1.25;;;;;;;;;;5030594;28;20445;-85
2021/11/29 07:53:00;;;;;;;4.13;1.35;;;;;;;;;;5029884;28;20031;-82
2021/11/29 07:55:28;;;;;;;3.42;1.33;;;;;;;;;;5039107;28;20396;-85
2021/11/29 07:57:55;;;;;;;7.43;1.40;;;;;;;;;;5034647;28;20393;-82
2021/11/29 08:00:23;;;;;;;5.25;1.40;;;;;;;;;;5030816;28;20484;-79
2021/11/29 08:02:51;;;;;;;3.90;1.27;;;;;;;;;;5053581;28;20381;-80
2021/11/29 08:05:19;;;;;;;2.35;0.93;;;;;;;;;;5031947;28;20036;-80
2021/11/29 08:07:45;;;;;;;4.63;1.08;;;;;;;;;;5044545;28;20111;-81
2021/11/29 08:10:10;;;;;;;5.00;1.35;;;;;;;;;;5048526;28;20069;-85
2021/11/29 08:12:35;;;;;;;4.90;1.17;;;;;;;;;;5029652;28;20030;-81
2021/11/29 08:15:01;;;;;;;3.88;1.15;;;;;;;;;;5031048;28;20361;-86
2021/11/29 08:17:26;;;;;;;3.13;0.90;;;;;;;;;;5039418;28;20025;-85
2021/11/29 08:19:52;;;;;;;3.95;1.10;;;;;;;;;;5034908;28;20472;-82
2021/11/29 08:22:18;;;;;;;5.10;1.45;;;;;;;;;;5033411;28;20056;-82
2021/11/29 08:24:44;;;;;;;6.30;1.20;;;;;;;;;;5029287;28;20036;-80
2021/11/29 08:27:09;;;;;;;4.72;1.45;;;;;;;;;;5033882;28;20480;-79
2021/11/29 08:29:35;;;;;;;3.05;1.00;;;;;;;;;;5031051;28;20115;-86
2021/11/29 08:32:00;;;;;;;6.10;1.30;;;;;;;;;;5034005;28;20131;-81
2021/11/29 08:34:26;;;;;;;5.82;1.20;;;;;;;;;;5031849;28;20606;-85
2021/11/29 08:36:51;;;;;;;3.05;1.00;;;;;;;;;;5033619;28;20072;-83
2021/11/29 08:39:17;;;;;;;7.05;1.38;;;;;;;;;;5033987;28;20032;-80
2021/11/29 08:41:43;;;;;;;3.40;0.90;;;;;;;;;;5034138;28;20116;-86
2021/11/29 08:44:08;;;;;;;4.03;0.90;;;;;;;;;;5051619;28;20463;-85
2021/11/29 08:46:34;;;;;;;3.15;1.02;;;;;;;;;;5030867;28;20393;-82
2021/11/29 08:49:00;;;;;;;2.78;0.90;;;;;;;;;;5035161;28;20493;-85
2021/11/29 08:51:26;;;;;;;6.75;0.93;;;;;;;;;;5047823;28;20037;-83
2021/11/29 08:53:53;;;;;;;2.95;0.82;;;;;;;;;;5032126;28;20159;-83
2021/11/29 08:56:18;;;;;;;4.22;1.20;;;;;;;;;;5046193;28;20025;-82
2021/11/29 08:58:44;;;;;;;5.95;1.02;;;;;;;;;;5046155;28;20155;-81
2021/11/29 09:01:11;;;;;;;4.90;1.00;;;;;;;;;;5037915;28;20087;-83
2021/11/29 09:03:36;;;;;;;2.40;1.00;;;;;;;;;;5034846;28;20484;-83
2021/11/29 09:06:02;;;;;;;2.50;0.63;;;;;;;;;;5055490;28;20079;-86
2021/11/29 09:08:29;;;;;;;3.13;0.85;;;;;;;;;;5035568;28;20047;-80
2021/11/29 09:10:55;;;;;;;3.38;0.73;;;;;;;;;;5036801;28;20873;-82
2021/11/29 09:13:21;;;;;;;2.20;0.68;;;;;;;;;;5039038;28;20108;-82
2021/11/29 09:15:47;;;;;;;3.50;0.70;;;;;;;;;;5048040;28;20049;-86
2021/11/29 09:18:14;;;;;;;3.25;0.57;;;;;;;;;;5053158;28;20025;-79
2021/11/29 09:20:41;;;;;;;2.50;0.60;;;;;;;;;;5030764;28;20025;-85
2021/11/29 09:23:08;;;;;;;2.33;0.50;;;;;;;;;;5036622;28;20033;-83
2021/11/29 09:25:40;;;;;;;3.75;0.73;;;;;;;;;;5052371;28;20507;-80
2021/11/29 09:28:07;;;;;;;5.75;0.60;;;;;;;;;;5023382;28;20477;-84
2021/11/29 09:30:32;;;;;;;3.08;0.70;;;;;;;;;;5046854;28;20021;-86
2021/11/29 09:32:57;;;;;;;1.98;0.68;;;;;;;;;;5051123;28;20052;-79
2021/11/29 09:35:23;;;;;;;3.05;0.60;;;;;;;;;;5025117;28;20028;-79
2021/11/29 09:37:49;;;;;;;1.52;0.68;;;;;;;;;;5036900;28;20040;-86
2021/11/29 09:40:22;;;;;;;1.52;0.70;;;;;;;;;;5034248;28;20017;-86
2021/11/29 09:42:49;;;;;;;4.20;0.90;;;;;;;;;;5042562;28;20109;-79
2021/11/29 09:45:16;;;;;;;2.35;0.57;;;;;;;;;;5035631;28;20028;-82
2021/11/29 09:47:42;;;;;;;3.78;0.70;;;;;;;;;;5044912;28;20029;-79
2021/11/29 09:50:08;;;;;;;2.25;0.55;;;;;;;;;;5036676;28;20388;-79
2021/11/29 09:52:34;;;;;;;1.75;0.80;;;;;;;;;;5034134;28;20059;-82
2021/11/29 09:55:00;;;;;;;1.48;0.70;;;;;;;;;;5036704;28;20056;-86
2021/11/29 09:57:25;;;;;;;3.25;0.70;;;;;;;;;;5029956;28;20078;-85
2021/11/29 09:59:51;;;;;;;2.88;0.52;;;;;;;;;;5030040;28;20029;-80
2021/11/29 10:02:17;;;;;;;3.40;0.57;;;;;;;;;;5030708;28;20025;-86
2021/11/29 10:04:47;;;;;;;1.80;0.47;;;;;;;;;;5053810;28;20029;-86
2021/11/29 10:07:29;;;;;;;2.22;0.40;;;;;;;;;;5031565;28;20507;-82
2021/11/29 10:09:56;;;;;;;3.22;0.40;;;;;;;;;;5032710;28;20114;-82
2021/11/29 10:12:26;;;;;;;0.85;0.50;;;;;;;;;;5036569;28;20021;-84
2021/11/29 10:15:22;;;;;;;2.05;0.50;;;;;;;;;;5036264;28;20033;-87
2021/11/29 10:17:52;;;;;;;1.50;0.50;;;;;;;;;;5030326;28;20511;-85
2021/11/29 10:20:18;;;;;;;1.52;0.70;;;;;;;;;;5049343;28;20029;-82
2021/11/29 10:23:04;;;;;;;2.55;0.50;;;;;;;;;;5036331;28;20029;-83
2021/11/29 10:25:29;;;;;;;1.92;0.50;;;;;;;;;;5033282;28;20083;-84
2021/11/29 10:27:56;;;;;;;2.70;0.60;;;;;;;;;;5031315;28;20029;-82
2021/11/29 10:30:25;;;;;;;1.55;0.50;;;;;;;;;;5030196;28;20388;-80
2021/11/29 10:32:52;;;;;;;1.48;0.60;;;;;;;;;;5027162;28;20021;-84
2021/11/29 10:35:36;;;;;;;2.38;0.80;;;;;;;;;;5029099;28;20075;-81
2021/11/29 10:38:04;;;;;;;0.95;0.60;;;;;;;;;;5020331;28;20036;-80
2021/11/29 10:40:29;;;;;;;2.17;0.60;;;;;;;;;;5027493;28;20032;-83
2021/11/29 10:43:03;;;;;;;1.52;0.73;;;;;;;;;;5035638;28;20036;-85
2021/11/29 10:45:28;;;;;;;5.80;0.90;;;;;;;;;;5029761;28;20047;-80
2021/11/29 10:47:55;;;;;;;1.58;0.63;;;;;;;;;;5033458;28;20119;-80
2021/11/29 10:50:25;;;;;;;1.52;0.60;;;;;;;;;;5035929;28;20021;-81
2021/11/29 10:53:06;;;;;;;3.22;0.80;;;;;;;;;;5035913;28;20044;-81
2021/11/29 10:55:32;;;;;;;4.40;0.80;;;;;;;;;;5028634;28;20441;-85
2021/11/29 10:57:58;;;;;;;2.47;0.75;;;;;;;;;;5035916;28;20049;-83
2021/11/29 11:00:24;;;;;;;2.55;0.80;;;;;;;;;;5032924;28;20026;-85
2021/11/29 11:03:03;;;;;;;2.40;0.80;;;;;;;;;;5033336;28;20373;-81
2021/11/29 11:05:28;;;;;;;2.63;0.77;;;;;;;;;;5023324;28;20045;-82
2021/11/29 11:08:07;;;;;;;2.03;0.90;;;;;;;;;;5020648;28;20063;-85
2021/11/29 11:10:33;;;;;;;3.15;0.73;;;;;;;;;;5041635;28;20017;-85
2021/11/29 11:12:59;;;;;;;3.97;1.00;;;;;;;;;;5034168;28;20024;-81
2021/11/29 11:15:24;;;;;;;2.75;0.70;;;;;;;;;;5028981;28;20040;-81
2021/11/29 11:17:54;;;;;;;2.28;0.82;;;;;;;;;;5032670;28;20025;-85
2021/11/29 11:20:19;;;;;;;2.53;0.90;;;;;;;;;;5028403;28;20033;-83
2021/11/29 11:22:49;;;;;;;5.28;1.00;;;;;;;;;;5029862;28;20431;-84
2021/11/29 11:25:19;;;;;;;3.00;1.10;;;;;;;;;;5024575;28;20033;-85
2021/11/29 11:27:54;;;;;;;2.60;1.00;;;;;;;;;;5019274;28;20055;-84
2021/11/29 11:30:22;;;;;;;4.93;1.10;;;;;;;;;;5029728;28;20039;-85
2021/11/29 11:32:58;;;;;;;5.63;1.25;;;;;;;;;;5032198;28;20047;-86
2021/11/29 11:35:32;;;;;;;3.85;0.80;;;;;;;;;;5028234;28;20734;-84
2021/11/29 11:38:23;;;;;;;3.42;1.15;;;;;;;;;;5027275;28;20650;-85
2021/11/29 11:40:52;;;;;;;2.90;1.02;;;;;;;;;;5024290;28;20028;-85
2021/11/29 11:43:20;;;;;;;1.83;0.82;;;;;;;;;;5033428;28;20021;-86
2021/11/29 11:45:53;;;;;;;2.20;1.02;;;;;;;;;;5031633;28;20036;-84
2021/11/29 11:48:20;;;;;;;1.45;0.70;;;;;;;;;;5032692;28;20111;-84
2021/11/29 11:51:27;;;;;;;2.08;0.90;;;;;;;;;;5050316;28;20107;-85
2021/11/29 11:53:59;;;;;;;2.20;0.93;;;;;;;;;;5041488;28;20032;-86
2021/11/29 11:56:30;;;;;;;3.35;1.00;;;;;;;;;;5034335;28;20104;-82
2021/11/29 11:59:49;;;;;;;3.72;0.90;;;;;;;;;;5030963;28;20380;-84
2021/11/29 12:03:01;;;;;;;2.55;0.80;;;;;;;;;;5039076;28;20040;-86
2021/11/29 12:05:32;;;;;;;2.47;0.93;;;;;;;;;;5010910;28;20120;-84
2021/11/29 12:08:03;;;;;;;1.88;0.73;;;;;;;;;;5058440;23;20080;-86
2021/11/29 12:11:03;;;;;;;3.47;1.02;;;;;;;;;;5055249;28;20124;-87
2021/11/29 12:14:16;;;;;;;;;;;;;;;;;;;;;
2021/11/29 12:17:16;;;;;;;3.53;0.98;;;;;;;;;;5035160;28;20033;-86
2021/11/29 12:20:10;;;;;;;3.00;0.65;;;;;;;;;;5038382;28;20037;-82
2021/11/29 12:22:36;;;;;;;2.50;0.95;;;;;;;;;;5024720;28;20496;-82
2021/11/29 12:25:21;;;;;;;4.05;0.98;;;;;;;;;;5031448;28;20031;-86
2021/11/29 12:28:35;;;;;;;3.63;0.90;;;;;;;;;;5033827;28;20020;-84
2021/11/29 12:31:35;;;;;;;1.52;0.93;;;;;;;;;;5020311;28;20456;-84
2021/11/29 12:34:08;;;;;;;2.85;1.08;;;;;;;;;;5043747;28;20049;-86
2021/11/29 12:37:04;;;;;;;2.88;1.23;;;;;;;;;;5013959;28;20659;-84
2021/11/29 12:40:36;;;;;;;4.82;1.30;;;;;;;;;;5022945;28;20049;-85
2021/11/29 12:43:05;;;;;;;3.92;1.17;;;;;;;;;;5026564;28;20496;-84
2021/11/29 12:45:37;;;;;;;2.35;1.10;;;;;;;;;;5035421;28;20024;-85
2021/11/29 12:48:15;;;;;;;5.25;1.05;;;;;;;;;;5031968;28;20600;-86
2021/11/29 12:50:54;;;;;;;4.15;0.93;;;;;;;;;;5033918;28;20020;-86
2021/11/29 12:53:41;;;;;;;1.58;0.90;;;;;;;;;;5044125;28;20087;-85
2021/11/29 12:56:25;;;;;;;2.90;1.10;;;;;;;;;;5027397;28;20022;-85
2021/11/29 12:59:39;;;;;;;2.40;1.20;;;;;;;;;;5048347;28;20092;-86
2021/11/29 13:02:42;;;;;;;5.47;1.30;;;;;;;;;;5040347;28;20068;-84
2021/11/29 13:05:26;;;;;;;4.97;1.33;;;;;;;;;;5030216;28;20028;-84
2021/11/29 13:08:06;;;;;;;5.80;1.75;;;;;;;;;;5038452;28;20067;-85
2021/11/29 13:10:50;;;;;;;5.90;1.77;;;;;;;;;;5036106;28;20017;-85
2021/11/29 13:13:43;;;;;;;3.33;1.33;;;;;;;;;;5025680;28;20033;-83
2021/11/29 13:16:45;;;;;;;2.58;1.30;;;;;;;;;;5028058;28;20020;-81
2021/11/29 13:19:43;;;;;;;4.95;1.10;;;;;;;;;;5029981;28;20033;-84
2021/11/29 13:22:14;;;;;;;3.78;1.40;;;;;;;;;;5003865;28;20049;-84
2021/11/29 13:24:48;;;;;;;3.70;1.52;;;;;;;;;;5013870;28;20624;-85
2021/11/29 13:27:19;;;;;;;5.78;1.58;;;;;;;;;;5018380;28;20107;-85
2021/11/29 13:30:16;;;;;;;2.97;1.35;;;;;;;;;;5008008;28;20045;-85
2021/11/29 13:32:40;;;;;;;2.97;0.82;;;;;;;;;;5015224;28;20036;-85
2021/11/29 13:35:17;;;;;;;2.65;0.90;;;;;;;;;;5010359;28;20719;-83
2021/11/29 13:40:46;;;;;;;5.13;1.05;;;;;;;;;;5022861;28;20080;-85
2021/11/29 13:43:45;;;;;;;3.67;1.33;;;;;;;;;;5026608;28;20030;-84
2021/11/29 13:46:17;;;;;;;3.60;1.33;;;;;;;;;;5010082;28;20022;-84
2021/11/29 13:48:51;;;;;;;3.22;1.30;;;;;;;;;;5006793;28;20124;-86
2021/11/29 13:51:17;;;;;;;2.47;0.85;;;;;;;;;;5030790;28;20126;-82
2021/11/29 13:53:48;;;;;;;4.38;0.90;;;;;;;;;;5035105;28;20021;-84
2021/11/29 13:56:49;;;;;;;4.85;0.80;;;;;;;;;;5034247;28;20033;-83
2021/11/29 13:59:18;;;;;;;2.72;0.63;;;;;;;;;;5024734;28;20083;-85
2021/11/29 14:01:53;;;;;;;2.80;0.80;;;;;;;;;;5035063;28;20033;-84
2021/11/29 14:07:18;;;;;;;2.60;0.50;;;;;;;;;;4934077;29;20047;-86
2021/11/29 14:25:54;;;;;;;4.00;0.80;;;;;;;;;;5047512;28;20102;-83
2021/11/29 14:28:22;;;;;;;1.65;0.85;;;;;;;;;;5034052;28;20041;-82
2021/11/29 14:30:55;;;;;;;3.40;1.25;;;;;;;;;;5033143;28;20131;-82
2021/11/29 14:33:30;;;;;;;2.47;1.00;;;;;;;;;;5031661;28;20416;-84
2021/11/29 14:35:55;;;;;;;2.88;1.00;;;;;;;;;;5027075;28;20605;-83
2021/11/29 14:38:24;;;;;;;5.03;0.85;;;;;;;;;;5029601;28;20164;-81
2021/11/29 14:41:26;;;;;;;1.30;0.73;;;;;;;;;;5031658;28;20036;-85
2021/11/29 14:43:58;;;;;;;2.00;0.73;;;;;;;;;;5033632;28;20076;-85
2021/11/29 14:50:26;;;;;;;1.98;0.80;;;;;;;;;;4972071;28;20038;-84
2021/11/29 14:53:01;;;;;;;1.63;0.82;;;;;;;;;;4992180;28;20041;-83
2021/11/29 14:55:59;;;;;;;2.10;0.80;;;;;;;;;;4990414;28;20066;-85
2021/11/29 14:58:57;;;;;;;2.60;0.93;;;;;;;;;;4936392;28;20043;-81
2021/11/29 15:01:28;;;;;;;2.53;0.95;;;;;;;;;;4856731;29;20044;-85
2021/11/29 15:04:03;;;;;;;1.98;1.00;;;;;;;;;;4854286;29;20038;-85
2021/11/29 15:06:30;;;;;;;2.03;1.02;;;;;;;;;;4856218;29;20026;-85
2021/11/29 15:09:30;;;;;;;5.07;0.98;;;;;;;;;;4950880;23;20497;-83
2021/11/29 15:12:00;;;;;;;3.47;1.00;;;;;;;;;;4908233;29;20040;-84
2021/11/29 15:15:01;;;;;;;3.45;1.00;;;;;;;;;;4929122;28;20043;-82
2021/11/29 15:18:01;;;;;;;2.92;1.10;;;;;;;;;;4908678;29;20131;-85
2021/11/29 15:21:02;;;;;;;3.08;1.00;;;;;;;;;;4865285;29;20042;-83
2021/11/29 15:23:31;;;;;;;2.50;1.00;;;;;;;;;;4819011;29;20435;-84
2021/11/29 15:26:14;;;;;;;;;;;;;;;;;;;;;
2021/11/29 15:33:05;;;;;;;5.65;1.05;;;;;;;;;;4832610;29;20575;-84